sensor_id;sensor_type;location;lat;lon;timestamp;pressure;altitude;pressure_sealevel;temperature;humidity
62057;BME280;48016;50.284;18.860;2023-02-10T00:01:50;99823.98;;;-3.59;65.10
62057;BME280;48016;50.284;18.860;2023-02-10T00:04:17;99825.30;;;-3.59;65.39
62057;BME280;48016;50.284;18.860;2023-02-10T00:06:43;99824.27;;;-3.59;65.21
62057;BME280;48016;50.284;18.860;2023-02-10T00:09:12;99813.70;;;-3.59;65.26
62057;BME280;48016;50.284;18.860;2023-02-10T00:11:42;99801.91;;;-3.59;65.30
62057;BME280;48016;50.284;18.860;2023-02-10T00:14:27;99801.45;;;-3.58;65.38
62057;BME280;48016;50.284;18.860;2023-02-10T00:16:55;99797.73;;;-3.56;65.48
62057;BME280;48016;50.284;18.860;2023-02-10T00:19:25;99785.13;;;-3.53;65.59
62057;BME280;48016;50.284;18.860;2023-02-10T00:21:53;99783.61;;;-3.49;65.71
62057;BME280;48016;50.284;18.860;2023-02-10T00:24:20;99782.24;;;-3.46;65.88
62057;BME280;48016;50.284;18.860;2023-02-10T00:26:48;99784.52;;;-3.41;66.09
62057;BME280;48016;50.284;18.860;2023-02-10T00:29:14;99785.95;;;-3.37;66.07
62057;BME280;48016;50.284;18.860;2023-02-10T00:31:42;99792.04;;;-3.34;66.18
62057;BME280;48016;50.284;18.860;2023-02-10T00:34:12;99788.44;;;-3.31;66.17
62057;BME280;48016;50.284;18.860;2023-02-10T00:36:39;99789.21;;;-3.30;65.99
62057;BME280;48016;50.284;18.860;2023-02-10T00:39:08;99783.31;;;-3.29;65.85
62057;BME280;48016;50.284;18.860;2023-02-10T00:41:38;99782.16;;;-3.28;65.89
62057;BME280;48016;50.284;18.860;2023-02-10T00:44:05;99787.33;;;-3.26;65.77
62057;BME280;48016;50.284;18.860;2023-02-10T00:46:32;99793.79;;;-3.26;65.59
62057;BME280;48016;50.284;18.860;2023-02-10T00:48:59;99796.73;;;-3.25;65.64
62057;BME280;48016;50.284;18.860;2023-02-10T00:51:26;99787.76;;;-3.25;65.65
62057;BME280;48016;50.284;18.860;2023-02-10T00:53:53;99791.17;;;-3.26;65.58
62057;BME280;48016;50.284;18.860;2023-02-10T00:56:20;99792.48;;;-3.27;65.60
62057;BME280;48016;50.284;18.860;2023-02-10T00:58:47;99799.95;;;-3.28;65.67
62057;BME280;48016;50.284;18.860;2023-02-10T01:01:15;99799.98;;;-3.28;65.52
62057;BME280;48016;50.284;18.860;2023-02-10T01:03:42;99800.11;;;-3.29;65.62
62057;BME280;48016;50.284;18.860;2023-02-10T01:06:10;99801.05;;;-3.30;65.65
62057;BME280;48016;50.284;18.860;2023-02-10T01:08:38;99801.77;;;-3.30;65.47
62057;BME280;48016;50.284;18.860;2023-02-10T01:11:08;99803.27;;;-3.31;65.84
62057;BME280;48016;50.284;18.860;2023-02-10T01:13:37;99792.03;;;-3.32;65.74
62057;BME280;48016;50.284;18.860;2023-02-10T01:16:06;99794.00;;;-3.32;65.70
62057;BME280;48016;50.284;18.860;2023-02-10T01:18:39;99790.68;;;-3.33;66.00
62057;BME280;48016;50.284;18.860;2023-02-10T01:21:12;99792.30;;;-3.33;65.82
62057;BME280;48016;50.284;18.860;2023-02-10T01:23:39;99788.61;;;-3.33;65.94
62057;BME280;48016;50.284;18.860;2023-02-10T01:26:08;99789.84;;;-3.33;66.16
62057;BME280;48016;50.284;18.860;2023-02-10T01:28:36;99785.21;;;-3.32;65.86
62057;BME280;48016;50.284;18.860;2023-02-10T01:31:08;99778.04;;;-3.33;65.78
62057;BME280;48016;50.284;18.860;2023-02-10T01:33:35;99776.61;;;-3.35;65.95
62057;BME280;48016;50.284;18.860;2023-02-10T01:36:06;99779.66;;;-3.36;65.94
62057;BME280;48016;50.284;18.860;2023-02-10T01:38:33;99770.86;;;-3.36;65.98
62057;BME280;48016;50.284;18.860;2023-02-10T01:40:59;99776.33;;;-3.36;65.85
62057;BME280;48016;50.284;18.860;2023-02-10T01:43:26;99778.36;;;-3.35;65.92
62057;BME280;48016;50.284;18.860;2023-02-10T01:45:53;99775.86;;;-3.33;66.15
62057;BME280;48016;50.284;18.860;2023-02-10T01:48:21;99778.63;;;-3.30;66.42
62057;BME280;48016;50.284;18.860;2023-02-10T01:50:53;99782.81;;;-3.27;67.06
62057;BME280;48016;50.284;18.860;2023-02-10T01:53:21;99777.17;;;-3.25;66.97
62057;BME280;48016;50.284;18.860;2023-02-10T01:55:51;99781.48;;;-3.24;66.83
62057;BME280;48016;50.284;18.860;2023-02-10T01:58:22;99784.66;;;-3.24;66.64
62057;BME280;48016;50.284;18.860;2023-02-10T02:00:50;99783.30;;;-3.25;66.48
62057;BME280;48016;50.284;18.860;2023-02-10T02:03:17;99778.70;;;-3.26;66.25
62057;BME280;48016;50.284;18.860;2023-02-10T02:05:44;99778.67;;;-3.28;66.13
62057;BME280;48016;50.284;18.860;2023-02-10T02:08:13;99772.88;;;-3.31;65.97
62057;BME280;48016;50.284;18.860;2023-02-10T02:28:08;99743.55;;;-3.55;65.87
62057;BME280;48016;50.284;18.860;2023-02-10T02:36:22;99745.89;;;-3.68;66.21
62057;BME280;48016;50.284;18.860;2023-02-10T02:38:59;99749.52;;;-3.71;66.09
62057;BME280;48016;50.284;18.860;2023-02-10T02:41:28;99741.42;;;-3.74;66.23
62057;BME280;48016;50.284;18.860;2023-02-10T02:43:56;99743.54;;;-3.78;66.14
62057;BME280;48016;50.284;18.860;2023-02-10T02:48:57;99740.38;;;-3.84;66.21
62057;BME280;48016;50.284;18.860;2023-02-10T02:52:26;99735.88;;;-3.87;66.19
62057;BME280;48016;50.284;18.860;2023-02-10T02:54:58;99738.32;;;-3.91;66.40
62057;BME280;48016;50.284;18.860;2023-02-10T03:00:16;99746.80;;;-3.96;66.35
62057;BME280;48016;50.284;18.860;2023-02-10T03:02:45;99738.24;;;-3.97;66.53
62057;BME280;48016;50.284;18.860;2023-02-10T03:05:20;99738.65;;;-3.95;66.79
62057;BME280;48016;50.284;18.860;2023-02-10T03:07:47;99736.41;;;-3.94;67.17
62057;BME280;48016;50.284;18.860;2023-02-10T03:10:14;99736.49;;;-3.93;67.61
62057;BME280;48016;50.284;18.860;2023-02-10T03:12:41;99733.75;;;-3.92;67.70
62057;BME280;48016;50.284;18.860;2023-02-10T03:15:08;99737.84;;;-3.92;67.65
62057;BME280;48016;50.284;18.860;2023-02-10T03:17:35;99737.98;;;-3.92;67.31
62057;BME280;48016;50.284;18.860;2023-02-10T03:20:02;99738.23;;;-3.93;67.28
62057;BME280;48016;50.284;18.860;2023-02-10T03:22:30;99735.52;;;-3.94;67.19
62057;BME280;48016;50.284;18.860;2023-02-10T03:24:56;99741.52;;;-3.96;67.10
62057;BME280;48016;50.284;18.860;2023-02-10T03:27:23;99742.38;;;-3.98;66.99
62057;BME280;48016;50.284;18.860;2023-02-10T03:29:50;99747.14;;;-4.00;66.91
62057;BME280;48016;50.284;18.860;2023-02-10T03:32:19;99753.55;;;-4.03;67.09
62057;BME280;48016;50.284;18.860;2023-02-10T03:34:46;99752.14;;;-4.05;66.84
62057;BME280;48016;50.284;18.860;2023-02-10T03:37:13;99749.77;;;-4.09;66.89
62057;BME280;48016;50.284;18.860;2023-02-10T03:39:40;99749.42;;;-4.11;66.75
62057;BME280;48016;50.284;18.860;2023-02-10T03:42:07;99750.54;;;-4.14;66.68
62057;BME280;48016;50.284;18.860;2023-02-10T03:44:33;99750.27;;;-4.17;67.00
62057;BME280;48016;50.284;18.860;2023-02-10T03:47:00;99752.40;;;-4.19;66.99
62057;BME280;48016;50.284;18.860;2023-02-10T03:49:27;99751.63;;;-4.22;66.86
62057;BME280;48016;50.284;18.860;2023-02-10T03:51:54;99751.85;;;-4.25;66.87
62057;BME280;48016;50.284;18.860;2023-02-10T03:54:20;99749.95;;;-4.28;67.07
62057;BME280;48016;50.284;18.860;2023-02-10T03:56:47;99752.31;;;-4.31;66.94
62057;BME280;48016;50.284;18.860;2023-02-10T03:59:14;99756.45;;;-4.34;67.01
62057;BME280;48016;50.284;18.860;2023-02-10T04:01:41;99758.48;;;-4.38;66.78
62057;BME280;48016;50.284;18.860;2023-02-10T04:04:07;99759.61;;;-4.39;66.89
62057;BME280;48016;50.284;18.860;2023-02-10T04:06:34;99757.54;;;-4.41;66.75
62057;BME280;48016;50.284;18.860;2023-02-10T04:09:01;99755.83;;;-4.44;66.69
62057;BME280;48016;50.284;18.860;2023-02-10T04:11:28;99759.33;;;-4.48;66.70
62057;BME280;48016;50.284;18.860;2023-02-10T04:13:54;99762.85;;;-4.50;67.09
62057;BME280;48016;50.284;18.860;2023-02-10T04:16:21;99760.17;;;-4.49;66.71
62057;BME280;48016;50.284;18.860;2023-02-10T04:18:54;99758.05;;;-4.47;67.28
62057;BME280;48016;50.284;18.860;2023-02-10T04:21:21;99758.81;;;-4.46;67.80
62057;BME280;48016;50.284;18.860;2023-02-10T04:23:47;99754.23;;;-4.44;67.73
62057;BME280;48016;50.284;18.860;2023-02-10T04:26:14;99746.39;;;-4.43;67.73
62057;BME280;48016;50.284;18.860;2023-02-10T04:28:41;99754.61;;;-4.42;67.58
62057;BME280;48016;50.284;18.860;2023-02-10T04:31:07;99758.39;;;-4.41;67.71
62057;BME280;48016;50.284;18.860;2023-02-10T04:33:36;99757.00;;;-4.41;67.53
62057;BME280;48016;50.284;18.860;2023-02-10T04:36:03;99760.10;;;-4.42;67.37
62057;BME280;48016;50.284;18.860;2023-02-10T04:38:30;99767.76;;;-4.44;67.18
62057;BME280;48016;50.284;18.860;2023-02-10T04:40:58;99772.20;;;-4.44;67.21
62057;BME280;48016;50.284;18.860;2023-02-10T04:43:25;99775.48;;;-4.45;67.23
62057;BME280;48016;50.284;18.860;2023-02-10T04:45:52;99778.06;;;-4.47;67.12
62057;BME280;48016;50.284;18.860;2023-02-10T04:48:19;99772.83;;;-4.50;67.03
62057;BME280;48016;50.284;18.860;2023-02-10T04:50:47;99773.25;;;-4.52;67.34
62057;BME280;48016;50.284;18.860;2023-02-10T04:53:14;99777.09;;;-4.55;67.16
62057;BME280;48016;50.284;18.860;2023-02-10T04:55:41;99779.70;;;-4.57;67.02
62057;BME280;48016;50.284;18.860;2023-02-10T04:58:07;99779.90;;;-4.59;67.09
62057;BME280;48016;50.284;18.860;2023-02-10T05:00:34;99778.20;;;-4.62;67.03
62057;BME280;48016;50.284;18.860;2023-02-10T05:03:01;99774.95;;;-4.65;66.85
62057;BME280;48016;50.284;18.860;2023-02-10T05:05:28;99775.02;;;-4.69;67.03
62057;BME280;48016;50.284;18.860;2023-02-10T05:07:54;99776.93;;;-4.73;67.00
62057;BME280;48016;50.284;18.860;2023-02-10T05:10:21;99776.24;;;-4.75;67.20
62057;BME280;48016;50.284;18.860;2023-02-10T05:12:48;99779.23;;;-4.77;67.18
62057;BME280;48016;50.284;18.860;2023-02-10T05:15:15;99777.92;;;-4.81;67.02
62057;BME280;48016;50.284;18.860;2023-02-10T05:17:42;99778.53;;;-4.82;66.92
62057;BME280;48016;50.284;18.860;2023-02-10T05:20:09;99778.00;;;-4.84;66.95
62057;BME280;48016;50.284;18.860;2023-02-10T05:22:37;99783.23;;;-4.85;67.38
62057;BME280;48016;50.284;18.860;2023-02-10T05:25:05;99783.66;;;-4.84;67.27
62057;BME280;48016;50.284;18.860;2023-02-10T05:27:32;99784.69;;;-4.82;67.50
62057;BME280;48016;50.284;18.860;2023-02-10T05:29:59;99795.06;;;-4.79;67.78
62057;BME280;48016;50.284;18.860;2023-02-10T05:32:25;99797.51;;;-4.75;68.00
62057;BME280;48016;50.284;18.860;2023-02-10T05:34:52;99801.27;;;-4.71;68.05
62057;BME280;48016;50.284;18.860;2023-02-10T05:37:19;99812.77;;;-4.68;68.11
62057;BME280;48016;50.284;18.860;2023-02-10T05:39:45;99820.34;;;-4.65;68.16
62057;BME280;48016;50.284;18.860;2023-02-10T05:42:12;99823.36;;;-4.63;67.73
62057;BME280;48016;50.284;18.860;2023-02-10T05:44:39;99830.59;;;-4.64;67.94
62057;BME280;48016;50.284;18.860;2023-02-10T05:47:06;99827.91;;;-4.66;67.53
62057;BME280;48016;50.284;18.860;2023-02-10T05:49:33;99824.21;;;-4.68;67.24
62057;BME280;48016;50.284;18.860;2023-02-10T05:51:59;99826.96;;;-4.69;67.49
62057;BME280;48016;50.284;18.860;2023-02-10T05:54:26;99826.23;;;-4.71;67.22
62057;BME280;48016;50.284;18.860;2023-02-10T05:56:53;99823.55;;;-4.73;67.04
62057;BME280;48016;50.284;18.860;2023-02-10T05:59:20;99824.42;;;-4.75;67.39
62057;BME280;48016;50.284;18.860;2023-02-10T06:01:47;99826.51;;;-4.77;67.28
62057;BME280;48016;50.284;18.860;2023-02-10T06:04:13;99826.90;;;-4.78;67.45
62057;BME280;48016;50.284;18.860;2023-02-10T06:06:40;99829.27;;;-4.79;67.39
62057;BME280;48016;50.284;18.860;2023-02-10T06:09:07;99828.13;;;-4.80;67.27
62057;BME280;48016;50.284;18.860;2023-02-10T06:11:34;99828.58;;;-4.80;67.56
62057;BME280;48016;50.284;18.860;2023-02-10T06:14:01;99830.10;;;-4.82;67.33
62057;BME280;48016;50.284;18.860;2023-02-10T06:16:28;99830.65;;;-4.83;67.52
62057;BME280;48016;50.284;18.860;2023-02-10T06:18:55;99838.34;;;-4.84;67.25
62057;BME280;48016;50.284;18.860;2023-02-10T06:21:22;99839.52;;;-4.85;67.19
62057;BME280;48016;50.284;18.860;2023-02-10T06:23:50;99837.41;;;-4.86;67.60
62057;BME280;48016;50.284;18.860;2023-02-10T06:26:16;99836.88;;;-4.83;67.37
62057;BME280;48016;50.284;18.860;2023-02-10T06:28:43;99835.66;;;-4.81;67.34
62057;BME280;48016;50.284;18.860;2023-02-10T06:31:10;99838.29;;;-4.79;67.53
62057;BME280;48016;50.284;18.860;2023-02-10T06:33:37;99846.44;;;-4.75;67.47
62057;BME280;48016;50.284;18.860;2023-02-10T06:36:04;99847.48;;;-4.70;67.43
62057;BME280;48016;50.284;18.860;2023-02-10T06:38:33;99851.41;;;-4.65;67.29
62057;BME280;48016;50.284;18.860;2023-02-10T06:41:01;99851.21;;;-4.58;67.48
62057;BME280;48016;50.284;18.860;2023-02-10T06:43:27;99849.43;;;-4.48;68.10
62057;BME280;48016;50.284;18.860;2023-02-10T06:45:54;99858.36;;;-4.39;68.29
62057;BME280;48016;50.284;18.860;2023-02-10T06:48:21;99850.02;;;-4.27;68.45
62057;BME280;48016;50.284;18.860;2023-02-10T06:50:48;99847.81;;;-4.15;68.44
62057;BME280;48016;50.284;18.860;2023-02-10T06:53:14;99850.71;;;-4.02;67.96
62057;BME280;48016;50.284;18.860;2023-02-10T06:55:41;99854.02;;;-3.89;67.67
62057;BME280;48016;50.284;18.860;2023-02-10T06:58:08;99861.27;;;-3.76;67.55
62057;BME280;48016;50.284;18.860;2023-02-10T07:00:35;99861.61;;;-3.63;67.44
62057;BME280;48016;50.284;18.860;2023-02-10T07:03:02;99859.10;;;-3.52;67.13
62057;BME280;48016;50.284;18.860;2023-02-10T07:05:29;99859.02;;;-3.40;66.82
62057;BME280;48016;50.284;18.860;2023-02-10T07:07:57;99858.02;;;-3.26;66.66
62057;BME280;48016;50.284;18.860;2023-02-10T07:10:30;99860.40;;;-3.08;66.76
62057;BME280;48016;50.284;18.860;2023-02-10T07:12:58;99861.45;;;-2.89;66.23
62057;BME280;48016;50.284;18.860;2023-02-10T07:15:25;99866.91;;;-2.77;66.16
62057;BME280;48016;50.284;18.860;2023-02-10T07:17:52;99869.77;;;-2.67;65.67
62057;BME280;48016;50.284;18.860;2023-02-10T07:20:19;99868.98;;;-2.58;65.64
62057;BME280;48016;50.284;18.860;2023-02-10T07:22:46;99870.21;;;-2.50;65.45
62057;BME280;48016;50.284;18.860;2023-02-10T07:25:13;99873.29;;;-2.40;65.36
62057;BME280;48016;50.284;18.860;2023-02-10T07:27:40;99874.21;;;-2.33;65.05
62057;BME280;48016;50.284;18.860;2023-02-10T07:30:07;99874.98;;;-2.21;65.10
62057;BME280;48016;50.284;18.860;2023-02-10T07:32:34;99871.79;;;-2.07;64.79
62057;BME280;48016;50.284;18.860;2023-02-10T07:35:01;99873.39;;;-1.93;64.51
62057;BME280;48016;50.284;18.860;2023-02-10T07:37:28;99868.00;;;-1.74;64.06
62057;BME280;48016;50.284;18.860;2023-02-10T07:39:55;99864.50;;;-1.57;64.16
62057;BME280;48016;50.284;18.860;2023-02-10T07:42:22;99858.17;;;-1.42;63.96
62057;BME280;48016;50.284;18.860;2023-02-10T07:44:49;99859.02;;;-1.26;63.85
62057;BME280;48016;50.284;18.860;2023-02-10T07:47:15;99862.77;;;-1.11;63.40
62057;BME280;48016;50.284;18.860;2023-02-10T07:49:42;99866.38;;;-1.00;63.08
62057;BME280;48016;50.284;18.860;2023-02-10T07:52:09;99872.21;;;-0.85;62.99
62057;BME280;48016;50.284;18.860;2023-02-10T07:54:36;99869.04;;;-0.76;62.66
62057;BME280;48016;50.284;18.860;2023-02-10T07:57:03;99866.42;;;-0.72;62.93
62057;BME280;48016;50.284;18.860;2023-02-10T07:59:30;99866.61;;;-0.67;62.55
62057;BME280;48016;50.284;18.860;2023-02-10T08:01:57;99877.00;;;-0.59;62.65
62057;BME280;48016;50.284;18.860;2023-02-10T08:04:23;99886.38;;;-0.49;62.33
62057;BME280;48016;50.284;18.860;2023-02-10T08:06:50;99883.72;;;-0.38;61.89
62057;BME280;48016;50.284;18.860;2023-02-10T08:09:17;99881.04;;;-0.25;62.16
62057;BME280;48016;50.284;18.860;2023-02-10T08:11:44;99879.39;;;-0.17;61.47
62057;BME280;48016;50.284;18.860;2023-02-10T08:14:11;99881.27;;;-0.07;61.29
62057;BME280;48016;50.284;18.860;2023-02-10T08:16:38;99882.92;;;0.02;61.37
62057;BME280;48016;50.284;18.860;2023-02-10T08:19:04;99886.09;;;0.13;61.09
62057;BME280;48016;50.284;18.860;2023-02-10T08:21:31;99886.48;;;0.22;60.91
62057;BME280;48016;50.284;18.860;2023-02-10T08:23:58;99889.81;;;0.28;60.75
62057;BME280;48016;50.284;18.860;2023-02-10T08:26:25;99896.62;;;0.38;60.67
62057;BME280;48016;50.284;18.860;2023-02-10T08:28:51;99896.10;;;0.49;59.52
62057;BME280;48016;50.284;18.860;2023-02-10T08:31:21;99894.71;;;0.56;60.05
62057;BME280;48016;50.284;18.860;2023-02-10T08:33:48;99896.92;;;0.57;60.09
62057;BME280;48016;50.284;18.860;2023-02-10T08:36:17;99896.52;;;0.55;59.68
62057;BME280;48016;50.284;18.860;2023-02-10T08:38:45;99898.56;;;0.54;59.54
62057;BME280;48016;50.284;18.860;2023-02-10T08:41:12;99900.32;;;0.60;59.56
62057;BME280;48016;50.284;18.860;2023-02-10T08:43:40;99902.40;;;0.64;59.78
62057;BME280;48016;50.284;18.860;2023-02-10T08:46:07;99903.14;;;0.63;59.83
62057;BME280;48016;50.284;18.860;2023-02-10T08:48:34;99902.05;;;0.64;59.74
62057;BME280;48016;50.284;18.860;2023-02-10T08:51:06;99899.27;;;0.62;59.37
62057;BME280;48016;50.284;18.860;2023-02-10T08:53:34;99897.57;;;0.61;59.36
62057;BME280;48016;50.284;18.860;2023-02-10T08:56:04;99892.36;;;0.63;58.98
62057;BME280;48016;50.284;18.860;2023-02-10T08:58:31;99892.02;;;0.65;59.01
62057;BME280;48016;50.284;18.860;2023-02-10T09:00:58;99896.15;;;0.70;58.90
62057;BME280;48016;50.284;18.860;2023-02-10T09:03:25;99900.58;;;0.77;58.86
62057;BME280;48016;50.284;18.860;2023-02-10T09:05:53;99899.66;;;0.86;59.12
62057;BME280;48016;50.284;18.860;2023-02-10T09:08:20;99894.86;;;0.97;58.64
62057;BME280;48016;50.284;18.860;2023-02-10T09:10:47;99894.98;;;1.06;58.63
62057;BME280;48016;50.284;18.860;2023-02-10T09:13:13;99898.39;;;1.16;58.04
62057;BME280;48016;50.284;18.860;2023-02-10T09:15:41;99899.89;;;1.29;58.67
62057;BME280;48016;50.284;18.860;2023-02-10T09:18:10;99895.41;;;1.46;58.05
62057;BME280;48016;50.284;18.860;2023-02-10T09:20:37;99901.88;;;1.66;57.73
62057;BME280;48016;50.284;18.860;2023-02-10T09:23:04;99910.16;;;1.89;57.37
62057;BME280;48016;50.284;18.860;2023-02-10T09:25:31;99909.88;;;1.98;57.07
62057;BME280;48016;50.284;18.860;2023-02-10T09:27:57;99905.14;;;1.98;56.52
62057;BME280;48016;50.284;18.860;2023-02-10T09:30:25;99902.55;;;1.97;56.64
62057;BME280;48016;50.284;18.860;2023-02-10T09:32:53;99905.42;;;2.02;56.81
62057;BME280;48016;50.284;18.860;2023-02-10T09:35:19;99907.05;;;2.07;56.46
62057;BME280;48016;50.284;18.860;2023-02-10T09:37:46;99901.59;;;2.09;56.46
62057;BME280;48016;50.284;18.860;2023-02-10T09:40:33;99898.01;;;2.15;56.77
62057;BME280;48016;50.284;18.860;2023-02-10T09:46:04;99902.69;;;2.28;55.83
62057;BME280;48016;50.284;18.860;2023-02-10T09:54:00;99911.54;;;2.55;55.41
62057;BME280;48016;50.284;18.860;2023-02-10T09:56:27;99917.19;;;2.65;55.48
62057;BME280;48016;50.284;18.860;2023-02-10T09:58:56;99916.23;;;2.76;55.31
62057;BME280;48016;50.284;18.860;2023-02-10T10:01:28;99925.16;;;2.87;55.53
62057;BME280;48016;50.284;18.860;2023-02-10T10:04:18;99919.48;;;2.90;55.39
62057;BME280;48016;50.284;18.860;2023-02-10T10:06:48;99917.08;;;2.83;55.01
62057;BME280;48016;50.284;18.860;2023-02-10T10:11:55;99906.27;;;2.64;54.77
62057;BME280;48016;50.284;18.860;2023-02-10T10:14:41;99899.36;;;2.61;54.65
62057;BME280;48016;50.284;18.860;2023-02-10T10:17:24;99888.31;;;2.59;54.79
62057;BME280;48016;50.284;18.860;2023-02-10T10:26:24;99891.42;;;2.71;54.15
62057;BME280;48016;50.284;18.860;2023-02-10T10:31:43;99895.49;;;3.05;54.15
62057;BME280;48016;50.284;18.860;2023-02-10T10:34:17;99901.13;;;3.10;54.58
62057;BME280;48016;50.284;18.860;2023-02-10T10:36:47;99897.56;;;3.07;54.10
62057;BME280;48016;50.284;18.860;2023-02-10T10:39:36;99900.87;;;3.09;54.42
62057;BME280;48016;50.284;18.860;2023-02-10T10:45:12;99891.92;;;3.15;54.04
62057;BME280;48016;50.284;18.860;2023-02-10T10:47:51;99888.09;;;3.21;53.77
62057;BME280;48016;50.284;18.860;2023-02-10T10:50:21;99885.98;;;3.27;53.55
62057;BME280;48016;50.284;18.860;2023-02-10T10:52:51;99884.71;;;3.33;53.86
62057;BME280;48016;50.284;18.860;2023-02-10T10:55:35;99884.81;;;3.34;53.30
62057;BME280;48016;50.284;18.860;2023-02-10T10:58:13;99886.77;;;3.39;53.32
62057;BME280;48016;50.284;18.860;2023-02-10T11:00:51;99890.94;;;3.45;53.21
62057;BME280;48016;50.284;18.860;2023-02-10T11:03:19;99884.48;;;3.48;53.10
62057;BME280;48016;50.284;18.860;2023-02-10T11:06:11;99878.85;;;3.44;53.11
62057;BME280;48016;50.284;18.860;2023-02-10T11:08:59;99873.23;;;3.44;53.04
62057;BME280;48016;50.284;18.860;2023-02-10T11:11:37;99876.91;;;3.39;52.22
62057;BME280;48016;50.284;18.860;2023-02-10T11:14:25;99870.05;;;3.34;52.51
62057;BME280;48016;50.284;18.860;2023-02-10T11:16:56;99869.91;;;3.30;53.04
62057;BME280;48016;50.284;18.860;2023-02-10T11:19:26;99871.33;;;3.22;52.95
62057;BME280;48016;50.284;18.860;2023-02-10T11:21:54;99868.13;;;3.22;52.94
62057;BME280;48016;50.284;18.860;2023-02-10T11:24:29;99870.89;;;3.21;52.59
62057;BME280;48016;50.284;18.860;2023-02-10T11:27:03;99868.29;;;3.19;53.10
62057;BME280;48016;50.284;18.860;2023-02-10T11:29:34;99866.98;;;3.16;52.86
62057;BME280;48016;50.284;18.860;2023-02-10T11:32:01;99864.69;;;3.14;53.03
62057;BME280;48016;50.284;18.860;2023-02-10T11:36:57;99852.30;;;3.04;53.20
62057;BME280;48016;50.284;18.860;2023-02-10T11:39:30;99845.19;;;3.04;53.29
62057;BME280;48016;50.284;18.860;2023-02-10T11:42:07;99851.87;;;3.03;53.36
62057;BME280;48016;50.284;18.860;2023-02-10T11:44:34;99856.17;;;3.03;53.35
62057;BME280;48016;50.284;18.860;2023-02-10T11:47:04;99858.96;;;3.02;53.44
62057;BME280;48016;50.284;18.860;2023-02-10T11:49:34;99858.35;;;3.01;53.33
62057;BME280;48016;50.284;18.860;2023-02-10T11:52:04;99857.88;;;2.99;53.22
62057;BME280;48016;50.284;18.860;2023-02-10T11:54:31;99862.73;;;2.98;53.37
62057;BME280;48016;50.284;18.860;2023-02-10T12:16:24;99855.87;;;2.36;52.93
62057;BME280;48016;50.284;18.860;2023-02-10T12:27:21;99854.79;;;2.33;54.14
62057;BME280;48016;50.284;18.860;2023-02-10T12:33:18;99858.79;;;2.34;53.98
62057;BME280;48016;50.284;18.860;2023-02-10T12:38:30;99859.13;;;2.42;54.00
62057;BME280;48016;50.284;18.860;2023-02-10T12:41:26;99849.86;;;2.51;53.53
62057;BME280;48016;50.284;18.860;2023-02-10T12:44:06;99848.92;;;2.58;54.17
62057;BME280;48016;50.284;18.860;2023-02-10T12:50:07;99868.86;;;2.76;54.64
62057;BME280;48016;50.284;18.860;2023-02-10T12:53:05;99869.80;;;2.86;54.44
62057;BME280;48016;50.284;18.860;2023-02-10T12:55:59;99875.61;;;2.92;54.57
62057;BME280;48016;50.284;18.860;2023-02-10T12:58:36;99875.55;;;3.02;54.31
62057;BME280;48016;50.284;18.860;2023-02-10T13:01:23;99867.63;;;3.10;54.52
62057;BME280;48016;50.284;18.860;2023-02-10T13:04:11;99861.47;;;3.18;54.42
62057;BME280;48016;50.284;18.860;2023-02-10T13:06:51;99864.80;;;3.22;54.28
62057;BME280;48016;50.284;18.860;2023-02-10T13:09:57;99869.35;;;3.24;53.97
62057;BME280;48016;50.284;18.860;2023-02-10T13:12:31;99866.33;;;3.27;53.91
62057;BME280;48016;50.284;18.860;2023-02-10T13:15:06;99857.90;;;3.32;54.04
62057;BME280;48016;50.284;18.860;2023-02-10T13:17:43;99855.52;;;3.34;53.98
62057;BME280;48016;50.284;18.860;2023-02-10T13:20:27;99865.13;;;3.33;53.93
62057;BME280;48016;50.284;18.860;2023-02-10T13:28:12;99869.44;;;3.02;54.19
62057;BME280;48016;50.284;18.860;2023-02-10T13:33:50;99883.39;;;2.79;54.52
62057;BME280;48016;50.284;18.860;2023-02-10T13:36:24;99883.63;;;2.70;54.58
62057;BME280;48016;50.284;18.860;2023-02-10T13:39:02;99885.02;;;2.65;54.74
62057;BME280;48016;50.284;18.860;2023-02-10T13:41:34;99885.93;;;2.60;54.64
62057;BME280;48016;50.284;18.860;2023-02-10T13:44:24;99888.91;;;2.55;54.93
62057;BME280;48016;50.284;18.860;2023-02-10T13:47:28;99888.09;;;2.53;55.07
62057;BME280;48016;50.284;18.860;2023-02-10T13:57:57;99899.27;;;2.43;55.37
62057;BME280;48016;50.284;18.860;2023-02-10T14:00:27;99903.76;;;2.40;55.36
62057;BME280;48016;50.284;18.860;2023-02-10T14:05:38;99897.87;;;2.33;55.44
62057;BME280;48016;50.284;18.860;2023-02-10T14:08:25;99896.73;;;2.32;55.57
62057;BME280;48016;50.284;18.860;2023-02-10T14:13:27;99898.23;;;2.24;55.81
62057;BME280;48016;50.284;18.860;2023-02-10T14:16:19;99899.46;;;2.23;56.19
62057;BME280;48016;50.284;18.860;2023-02-10T14:18:59;99905.15;;;2.19;56.11
62057;BME280;48016;50.284;18.860;2023-02-10T14:21:26;99899.75;;;2.15;56.15
62057;BME280;48016;50.284;18.860;2023-02-10T14:23:55;99907.10;;;2.11;56.01
62057;BME280;48016;50.284;18.860;2023-02-10T14:26:34;99904.35;;;2.09;56.32
62057;BME280;48016;50.284;18.860;2023-02-10T14:29:02;99907.67;;;2.06;56.58
62057;BME280;48016;50.284;18.860;2023-02-10T14:31:33;99907.64;;;2.04;56.71
62057;BME280;48016;50.284;18.860;2023-02-10T14:34:04;99909.13;;;2.02;56.87
62057;BME280;48016;50.284;18.860;2023-02-10T14:36:31;99908.22;;;2.00;56.63
62057;BME280;48016;50.284;18.860;2023-02-10T14:39:00;99907.92;;;2.00;56.89
62057;BME280;48016;50.284;18.860;2023-02-10T14:41:29;99901.84;;;1.97;56.89
62057;BME280;48016;50.284;18.860;2023-02-10T14:43:56;99901.96;;;1.96;56.95
62057;BME280;48016;50.284;18.860;2023-02-10T14:46:26;99904.70;;;1.95;56.83
62057;BME280;48016;50.284;18.860;2023-02-10T14:49:03;99907.81;;;1.93;56.76
62057;BME280;48016;50.284;18.860;2023-02-10T14:51:39;99907.84;;;1.89;56.86
62057;BME280;48016;50.284;18.860;2023-02-10T14:56:58;99905.55;;;1.85;57.28
62057;BME280;48016;50.284;18.860;2023-02-10T14:59:30;99906.45;;;1.85;57.30
62057;BME280;48016;50.284;18.860;2023-02-10T15:02:00;99906.83;;;1.84;57.20
62057;BME280;48016;50.284;18.860;2023-02-10T15:04:27;99908.79;;;1.78;57.22
62057;BME280;48016;50.284;18.860;2023-02-10T15:06:56;99906.70;;;1.75;57.45